Terminal Aerodrome Forecast
Issued by NWS

Home | Current Version | Previous Version | Graphics & Text | Print | Product List | Glossary On
Versions: 1 2 3 4 5 6 7 8 9 10 11 12 13 14 15 16 17 18 19 20
757
FTUS42 KMHX 171005 AAA
TAFPGV
TAF AMD
KPGV 171005Z 1710/1806 00000KT 3SM BR BKN003
     FM171300 VRB03KT 5SM BR SCT007 BKN015
     FM171500 VRB04KT P6SM FEW007 SCT090
     FM171700 17008KT P6SM SCT035 BKN090
      AMD LTD TO CLD VIS AND WIND=

USA.gov is the U.S. government's official web portal to all federal, state and local government web resources and services.